Time;durP1;ratioP1;P1;durP2;ratioP2;P2;SDS_P1;SDS_P2;PMS_P1;PMS_P2;Temp;Humidity;BMP_temperature;BMP_pressure;BME280_temperature;BME280_humidity;BME280_pressure;Samples;Min_cycle;Max_cycle;Signal;HPM_P1;HPM_P2
2023/03/08 00:00:02;;;;;;;8.87;7.97;;;;;;;;;;4993886;28;20421;-73
2023/03/08 00:02:28;;;;;;;10.93;8.03;;;;;;;;;;4993592;28;20479;-73
2023/03/08 00:04:54;;;;;;;9.90;8.00;;;;;;;;;;4993928;28;20429;-73
2023/03/08 00:07:21;;;;;;;9.10;7.23;;;;;;;;;;4994087;28;20443;-73
2023/03/08 00:09:46;;;;;;;8.80;7.30;;;;;;;;;;4993485;28;20552;-73
2023/03/08 00:12:13;;;;;;;9.90;7.70;;;;;;;;;;4993604;28;20558;-73
2023/03/08 00:14:39;;;;;;;7.77;6.97;;;;;;;;;;4993746;28;20417;-73
2023/03/08 00:17:05;;;;;;;8.20;7.30;;;;;;;;;;4993563;28;20425;-73
2023/03/08 00:19:31;;;;;;;10.53;5.93;;;;;;;;;;4993572;28;20520;-74
2023/03/08 00:21:57;;;;;;;11.87;7.27;;;;;;;;;;4993498;28;20429;-73
2023/03/08 00:24:23;;;;;;;9.83;7.90;;;;;;;;;;4993736;28;20421;-72
2023/03/08 00:26:49;;;;;;;13.83;6.80;;;;;;;;;;4993372;28;20929;-73
2023/03/08 00:29:15;;;;;;;9.10;6.87;;;;;;;;;;4993559;28;20421;-73
2023/03/08 00:31:41;;;;;;;9.77;7.83;;;;;;;;;;4993417;28;20960;-73
2023/03/08 00:34:07;;;;;;;11.87;7.23;;;;;;;;;;4993652;28;20769;-73
2023/03/08 00:36:33;;;;;;;9.13;6.50;;;;;;;;;;4993678;28;20421;-73
2023/03/08 00:38:59;;;;;;;11.87;8.07;;;;;;;;;;4993406;28;20413;-73
2023/03/08 00:41:25;;;;;;;18.03;7.10;;;;;;;;;;4993373;28;20463;-73
2023/03/08 00:43:51;;;;;;;15.93;7.17;;;;;;;;;;4993344;28;20469;-73
2023/03/08 00:46:17;;;;;;;12.70;7.83;;;;;;;;;;4993296;28;20476;-73
2023/03/08 00:48:43;;;;;;;15.90;8.33;;;;;;;;;;4993145;28;20820;-73
2023/03/08 00:51:11;;;;;;;10.00;8.97;;;;;;;;;;4993361;28;20519;-73
2023/03/08 00:53:37;;;;;;;13.60;7.23;;;;;;;;;;4993850;28;20429;-73
2023/03/08 00:56:03;;;;;;;11.03;7.57;;;;;;;;;;4996810;28;20417;-73
2023/03/08 00:58:30;;;;;;;12.13;7.93;;;;;;;;;;4996541;28;20421;-73
2023/03/08 01:00:56;;;;;;;10.60;7.80;;;;;;;;;;4996915;28;20449;-73
2023/03/08 01:03:22;;;;;;;10.50;7.43;;;;;;;;;;4996714;28;20420;-73
2023/03/08 01:05:50;;;;;;;11.90;7.67;;;;;;;;;;4996772;28;20425;-73
2023/03/08 01:08:17;;;;;;;8.63;6.93;;;;;;;;;;4996822;28;20896;-73
2023/03/08 01:10:55;;;;;;;9.87;6.50;;;;;;;;;;4996712;28;21066;-73
2023/03/08 01:13:21;;;;;;;9.00;7.30;;;;;;;;;;4996531;28;20943;-73
2023/03/08 01:15:47;;;;;;;11.40;8.47;;;;;;;;;;4996484;28;20413;-73
2023/03/08 01:18:13;;;;;;;8.37;7.47;;;;;;;;;;4996551;28;20421;-73
2023/03/08 01:20:39;;;;;;;8.10;7.40;;;;;;;;;;4996265;28;20410;-73
2023/03/08 01:23:05;;;;;;;12.13;8.40;;;;;;;;;;4996322;28;20828;-72
2023/03/08 01:25:31;;;;;;;13.37;8.10;;;;;;;;;;4996523;28;20429;-73
2023/03/08 01:27:57;;;;;;;7.90;7.10;;;;;;;;;;4997235;28;20482;-73
2023/03/08 01:30:23;;;;;;;10.33;7.50;;;;;;;;;;4996023;28;20822;-73
2023/03/08 01:32:49;;;;;;;8.87;7.33;;;;;;;;;;4996190;28;20482;-73
2023/03/08 01:35:17;;;;;;;11.00;7.07;;;;;;;;;;4996023;28;20428;-73
2023/03/08 01:37:43;;;;;;;8.50;6.30;;;;;;;;;;4995935;28;20932;-73
2023/03/08 01:40:10;;;;;;;7.47;5.87;;;;;;;;;;4996029;28;20417;-73
2023/03/08 01:42:37;;;;;;;7.33;6.00;;;;;;;;;;4994444;28;20421;-73
2023/03/08 01:45:07;;;;;;;7.93;7.13;;;;;;;;;;4996151;28;20976;-73
2023/03/08 01:47:34;;;;;;;10.27;6.83;;;;;;;;;;4996039;28;20417;-73
2023/03/08 01:50:09;;;;;;;9.10;5.80;;;;;;;;;;4995972;28;20473;-73
2023/03/08 01:52:38;;;;;;;7.30;6.57;;;;;;;;;;4995846;28;20823;-73
2023/03/08 01:55:05;;;;;;;6.53;5.50;;;;;;;;;;4995679;28;20924;-73
2023/03/08 01:57:40;;;;;;;10.50;6.77;;;;;;;;;;4996215;28;20428;-73
2023/03/08 02:00:14;;;;;;;8.37;6.43;;;;;;;;;;4995802;28;20781;-73
2023/03/08 02:02:51;;;;;;;6.77;6.00;;;;;;;;;;4995590;28;20440;-73
2023/03/08 02:05:17;;;;;;;6.27;5.67;;;;;;;;;;4995072;28;20480;-73
2023/03/08 02:07:43;;;;;;;6.47;5.97;;;;;;;;;;4995350;28;20432;-73
2023/03/08 02:10:10;;;;;;;8.60;6.77;;;;;;;;;;4995330;28;20504;-73
2023/03/08 02:12:37;;;;;;;7.50;6.43;;;;;;;;;;4995422;28;20417;-73
2023/03/08 02:15:04;;;;;;;13.80;7.03;;;;;;;;;;4995258;28;20822;-73
2023/03/08 02:17:31;;;;;;;11.13;6.30;;;;;;;;;;4995541;28;20798;-73
2023/03/08 02:20:01;;;;;;;8.87;6.50;;;;;;;;;;4995149;28;20422;-73
2023/03/08 02:22:27;;;;;;;8.17;6.30;;;;;;;;;;4996065;28;20548;-73
2023/03/08 02:27:57;;;;;;;9.97;7.50;;;;;;;;;;4995216;28;20784;-73
2023/03/08 02:30:24;;;;;;;12.80;7.50;;;;;;;;;;4995214;28;20998;-73
2023/03/08 02:32:50;;;;;;;7.83;6.70;;;;;;;;;;4995221;28;20425;-72
2023/03/08 02:35:16;;;;;;;6.90;6.20;;;;;;;;;;4995682;28;20460;-73
2023/03/08 02:37:42;;;;;;;10.93;7.60;;;;;;;;;;4995258;28;20463;-73
2023/03/08 02:40:10;;;;;;;9.40;7.60;;;;;;;;;;4994845;28;20512;-73
2023/03/08 02:42:36;;;;;;;9.10;6.80;;;;;;;;;;4994610;28;20918;-73
2023/03/08 02:45:02;;;;;;;8.30;6.20;;;;;;;;;;4995051;28;20429;-73
2023/03/08 02:47:28;;;;;;;7.00;6.30;;;;;;;;;;4995014;28;20449;-73
2023/03/08 02:49:54;;;;;;;10.33;7.50;;;;;;;;;;4995310;28;20480;-73
2023/03/08 02:52:20;;;;;;;7.37;6.70;;;;;;;;;;4994933;28;20905;-73
2023/03/08 02:57:50;;;;;;;11.37;7.20;;;;;;;;;;4994646;28;20459;-73
2023/03/08 03:00:16;;;;;;;9.27;6.90;;;;;;;;;;4994713;28;20961;-73
2023/03/08 03:02:42;;;;;;;6.53;5.80;;;;;;;;;;4994490;28;20421;-73
2023/03/08 03:05:12;;;;;;;7.03;6.37;;;;;;;;;;4994401;28;20409;-73
2023/03/08 03:07:39;;;;;;;8.07;7.37;;;;;;;;;;4994468;28;20912;-74
2023/03/08 03:10:06;;;;;;;7.90;6.80;;;;;;;;;;4992972;28;20882;-73
2023/03/08 03:12:32;;;;;;;14.83;6.03;;;;;;;;;;4994606;28;20429;-73
2023/03/08 03:14:58;;;;;;;9.47;7.27;;;;;;;;;;4994799;28;20789;-73
2023/03/08 03:17:24;;;;;;;9.00;6.37;;;;;;;;;;4994445;28;20442;-73
2023/03/08 03:19:50;;;;;;;8.67;7.00;;;;;;;;;;4992920;28;20790;-73
2023/03/08 03:22:15;;;;;;;8.10;6.83;;;;;;;;;;4994171;28;20421;-73
2023/03/08 03:24:42;;;;;;;18.70;7.20;;;;;;;;;;4992868;28;20448;-73
2023/03/08 03:27:07;;;;;;;7.83;6.47;;;;;;;;;;4994340;28;20757;-73
2023/03/08 03:29:33;;;;;;;9.17;7.27;;;;;;;;;;4993912;28;20472;-73
2023/03/08 03:31:59;;;;;;;8.30;7.47;;;;;;;;;;4994034;28;20429;-73
2023/03/08 03:34:25;;;;;;;11.53;7.23;;;;;;;;;;4994250;28;20436;-73
2023/03/08 03:36:51;;;;;;;9.97;6.57;;;;;;;;;;4993872;28;20431;-73
2023/03/08 03:39:17;;;;;;;10.10;6.93;;;;;;;;;;4994202;28;20894;-73
2023/03/08 03:41:43;;;;;;;7.83;7.03;;;;;;;;;;4994137;28;20791;-73
2023/03/08 03:44:09;;;;;;;8.40;6.97;;;;;;;;;;4993675;28;20523;-73
2023/03/08 03:46:35;;;;;;;7.23;5.73;;;;;;;;;;4993861;28;20429;-73
2023/03/08 03:49:01;;;;;;;6.93;6.33;;;;;;;;;;4994026;28;20515;-73
2023/03/08 03:51:27;;;;;;;7.60;6.47;;;;;;;;;;4993772;28;20472;-73
2023/03/08 03:53:53;;;;;;;9.30;7.40;;;;;;;;;;4993995;28;20468;-73
2023/03/08 03:56:20;;;;;;;7.90;7.03;;;;;;;;;;4994330;28;20858;-73
2023/03/08 03:58:46;;;;;;;8.53;5.90;;;;;;;;;;4993969;28;20429;-73
2023/03/08 04:01:17;;;;;;;10.33;7.37;;;;;;;;;;4993994;28;20418;-73
2023/03/08 04:03:43;;;;;;;10.90;7.40;;;;;;;;;;4993671;28;20421;-73
2023/03/08 04:06:11;;;;;;;10.70;7.17;;;;;;;;;;4993682;28;20420;-73
2023/03/08 04:08:41;;;;;;;14.17;7.10;;;;;;;;;;4993636;28;20417;-73
2023/03/08 04:11:11;;;;;;;7.00;6.27;;;;;;;;;;4993865;28;20555;-73
2023/03/08 04:13:37;;;;;;;8.90;6.93;;;;;;;;;;4993881;28;20421;-73
2023/03/08 04:16:09;;;;;;;6.97;6.27;;;;;;;;;;4993566;28;20577;-73
2023/03/08 04:18:35;;;;;;;8.60;6.60;;;;;;;;;;4993747;28;20496;-73
2023/03/08 04:21:01;;;;;;;9.37;6.47;;;;;;;;;;4992103;28;20425;-73
2023/03/08 04:23:27;;;;;;;8.43;6.63;;;;;;;;;;4992181;28;20439;-73
2023/03/08 04:25:53;;;;;;;10.43;6.27;;;;;;;;;;4993782;28;20476;-73
2023/03/08 04:28:19;;;;;;;8.83;7.20;;;;;;;;;;4993618;28;20877;-73
2023/03/08 04:30:45;;;;;;;12.27;6.07;;;;;;;;;;4997043;28;20476;-73
2023/03/08 04:33:11;;;;;;;8.83;5.83;;;;;;;;;;4997182;28;20417;-73
2023/03/08 04:35:37;;;;;;;8.03;7.30;;;;;;;;;;4997628;28;20460;-73
2023/03/08 04:38:03;;;;;;;8.53;6.80;;;;;;;;;;4997494;28;20425;-73
2023/03/08 04:40:29;;;;;;;7.23;6.53;;;;;;;;;;4997029;28;20931;-73
2023/03/08 04:42:55;;;;;;;10.63;6.70;;;;;;;;;;4996816;28;20566;-73
2023/03/08 04:45:21;;;;;;;9.00;6.40;;;;;;;;;;4997283;28;20882;-73
2023/03/08 04:47:47;;;;;;;8.50;6.63;;;;;;;;;;4996989;28;20551;-73
2023/03/08 04:50:13;;;;;;;8.60;6.50;;;;;;;;;;4996612;28;20944;-73
2023/03/08 04:52:39;;;;;;;8.70;6.30;;;;;;;;;;4997166;28;20472;-73
2023/03/08 04:55:06;;;;;;;7.43;6.73;;;;;;;;;;4996840;28;20520;-73
2023/03/08 04:57:33;;;;;;;7.03;6.47;;;;;;;;;;4997377;28;20417;-73
2023/03/08 04:59:59;;;;;;;7.10;6.40;;;;;;;;;;4996918;28;20437;-73
2023/03/08 05:02:25;;;;;;;7.47;6.70;;;;;;;;;;4996666;28;20491;-73
2023/03/08 05:04:51;;;;;;;6.87;6.03;;;;;;;;;;4996570;28;20904;-73
2023/03/08 05:07:17;;;;;;;7.30;6.60;;;;;;;;;;4996844;28;20855;-73
2023/03/08 05:09:43;;;;;;;8.37;6.37;;;;;;;;;;4996720;28;20460;-73
2023/03/08 05:12:09;;;;;;;10.13;7.83;;;;;;;;;;4995696;28;20435;-73
2023/03/08 05:14:35;;;;;;;8.70;6.10;;;;;;;;;;4996704;28;20775;-73
2023/03/08 05:17:01;;;;;;;7.30;6.70;;;;;;;;;;4996379;28;20516;-73
2023/03/08 05:19:30;;;;;;;15.93;6.10;;;;;;;;;;4996559;28;20824;-73
2023/03/08 05:21:56;;;;;;;8.60;6.90;;;;;;;;;;4996649;28;20437;-73
2023/03/08 05:24:22;;;;;;;18.03;7.00;;;;;;;;;;4996160;28;20497;-73
2023/03/08 05:26:47;;;;;;;9.07;6.87;;;;;;;;;;4996580;28;20452;-73
2023/03/08 05:29:13;;;;;;;10.23;6.40;;;;;;;;;;4996186;28;20441;-73
2023/03/08 05:31:41;;;;;;;8.23;5.43;;;;;;;;;;4996104;28;20433;-74
2023/03/08 05:34:09;;;;;;;7.50;6.80;;;;;;;;;;4995968;28;20889;-73
2023/03/08 05:36:35;;;;;;;8.33;6.83;;;;;;;;;;4996295;28;20416;-73
2023/03/08 05:39:01;;;;;;;6.23;5.63;;;;;;;;;;4995968;28;20421;-73
2023/03/08 05:41:27;;;;;;;8.23;7.33;;;;;;;;;;4995010;28;20424;-73
2023/03/08 05:43:53;;;;;;;8.33;5.33;;;;;;;;;;4995810;28;20469;-73
2023/03/08 05:46:19;;;;;;;8.60;6.77;;;;;;;;;;4995891;28;20413;-73
2023/03/08 05:48:45;;;;;;;5.77;5.27;;;;;;;;;;4995803;28;20425;-73
2023/03/08 05:51:13;;;;;;;5.50;5.10;;;;;;;;;;4994467;28;20496;-71
2023/03/08 05:53:39;;;;;;;6.10;5.60;;;;;;;;;;4995963;28;20422;-67
2023/03/08 05:56:08;;;;;;;8.03;5.97;;;;;;;;;;4995571;28;20949;-74
2023/03/08 05:58:35;;;;;;;9.17;6.70;;;;;;;;;;4996307;28;20427;-73
2023/03/08 06:01:07;;;;;;;6.10;5.60;;;;;;;;;;4995588;28;20418;-72
2023/03/08 06:03:33;;;;;;;6.90;6.23;;;;;;;;;;4995804;28;20894;-71
2023/03/08 06:05:59;;;;;;;11.20;8.50;;;;;;;;;;4995393;28;20428;-72
2023/03/08 06:08:25;;;;;;;10.07;7.30;;;;;;;;;;4995684;28;20432;-71
2023/03/08 06:10:51;;;;;;;13.97;8.83;;;;;;;;;;4995432;28;21005;-71
2023/03/08 06:13:17;;;;;;;7.97;6.93;;;;;;;;;;4994188;28;20429;-71
2023/03/08 06:15:43;;;;;;;11.13;5.67;;;;;;;;;;4995676;28;20783;-71
2023/03/08 06:18:09;;;;;;;7.53;6.60;;;;;;;;;;4995289;28;20483;-71
2023/03/08 06:20:35;;;;;;;6.93;6.23;;;;;;;;;;4995181;28;20432;-72
2023/03/08 06:23:01;;;;;;;8.37;6.70;;;;;;;;;;4993873;28;20421;-71
2023/03/08 06:25:27;;;;;;;7.30;6.50;;;;;;;;;;4994199;28;20564;-71
2023/03/08 06:27:53;;;;;;;6.33;5.83;;;;;;;;;;4995187;28;20417;-79
2023/03/08 06:30:19;;;;;;;7.17;6.40;;;;;;;;;;4994758;28;21055;-72
2023/03/08 06:32:45;;;;;;;6.57;6.00;;;;;;;;;;4995171;28;20441;-73
2023/03/08 06:35:11;;;;;;;10.43;6.83;;;;;;;;;;4995201;28;20413;-72
2023/03/08 06:37:37;;;;;;;11.37;6.87;;;;;;;;;;4995232;28;20492;-72
2023/03/08 06:40:04;;;;;;;9.27;6.20;;;;;;;;;;4994878;28;20421;-72
2023/03/08 06:42:30;;;;;;;8.63;6.33;;;;;;;;;;4994515;28;20512;-72
2023/03/08 06:44:56;;;;;;;7.93;7.13;;;;;;;;;;4995422;28;20470;-73
2023/03/08 06:47:22;;;;;;;8.60;7.60;;;;;;;;;;4994631;28;20424;-72
2023/03/08 06:49:48;;;;;;;11.13;7.23;;;;;;;;;;4994865;28;20523;-77
2023/03/08 06:52:14;;;;;;;10.40;7.53;;;;;;;;;;4993500;28;20564;-72
2023/03/08 06:54:40;;;;;;;8.60;6.60;;;;;;;;;;4994398;28;20479;-72
2023/03/08 06:57:06;;;;;;;6.90;6.20;;;;;;;;;;4994091;28;20424;-73
2023/03/08 06:59:32;;;;;;;6.50;5.77;;;;;;;;;;4993231;28;20520;-72
2023/03/08 07:01:58;;;;;;;7.27;6.57;;;;;;;;;;4994628;28;20501;-73
2023/03/08 07:07:27;;;;;;;7.80;6.10;;;;;;;;;;4994431;28;20543;-73
2023/03/08 07:09:53;;;;;;;6.97;6.27;;;;;;;;;;4994410;28;20548;-72
2023/03/08 07:12:19;;;;;;;7.40;6.10;;;;;;;;;;4994505;28;20433;-71
2023/03/08 07:14:45;;;;;;;9.67;7.13;;;;;;;;;;4994461;28;20500;-74
2023/03/08 07:17:11;;;;;;;6.47;5.60;;;;;;;;;;4994438;28;20422;-73
2023/03/08 07:19:37;;;;;;;7.27;6.57;;;;;;;;;;4994713;28;20444;-73
2023/03/08 07:22:03;;;;;;;15.87;7.40;;;;;;;;;;4993986;28;20491;-72
2023/03/08 07:27:33;;;;;;;7.30;6.60;;;;;;;;;;4994327;28;20396;-72
2023/03/08 07:29:59;;;;;;;6.67;6.13;;;;;;;;;;4994218;28;20557;-73
2023/03/08 07:32:27;;;;;;;6.60;5.73;;;;;;;;;;4994209;28;20422;-72
2023/03/08 07:34:53;;;;;;;6.20;5.60;;;;;;;;;;4993673;28;20423;-72
2023/03/08 07:37:19;;;;;;;7.40;6.70;;;;;;;;;;4992578;28;20491;-72
2023/03/08 07:39:45;;;;;;;8.60;7.87;;;;;;;;;;4994170;28;20429;-72
2023/03/08 07:42:11;;;;;;;6.67;6.07;;;;;;;;;;4993890;28;20491;-72
2023/03/08 07:44:37;;;;;;;6.67;5.53;;;;;;;;;;4993596;28;20957;-73
2023/03/08 07:47:05;;;;;;;7.07;5.23;;;;;;;;;;4994090;28;20460;-73
2023/03/08 07:49:31;;;;;;;10.10;5.73;;;;;;;;;;4993520;28;20421;-72
2023/03/08 07:51:56;;;;;;;6.27;5.67;;;;;;;;;;4993884;28;20519;-72
2023/03/08 07:54:22;;;;;;;5.07;4.87;;;;;;;;;;4993698;28;20417;-72
2023/03/08 07:56:48;;;;;;;9.33;5.37;;;;;;;;;;4992699;28;20460;-73
2023/03/08 07:59:14;;;;;;;10.43;4.87;;;;;;;;;;4994015;28;20460;-73
2023/03/08 08:01:40;;;;;;;5.87;5.10;;;;;;;;;;4993529;28;20512;-73
2023/03/08 08:04:07;;;;;;;7.10;5.90;;;;;;;;;;4994680;28;20432;-72
2023/03/08 08:06:34;;;;;;;6.20;5.57;;;;;;;;;;4997696;28;20425;-73
2023/03/08 08:09:00;;;;;;;4.87;4.40;;;;;;;;;;4997500;28;20536;-73
2023/03/08 08:11:26;;;;;;;6.67;6.07;;;;;;;;;;4997348;28;20903;-73
2023/03/08 08:13:52;;;;;;;7.97;6.23;;;;;;;;;;4997353;28;20754;-73
2023/03/08 08:16:18;;;;;;;7.60;6.20;;;;;;;;;;4997255;28;20471;-73
2023/03/08 08:18:44;;;;;;;5.07;4.77;;;;;;;;;;4996836;28;20416;-73
2023/03/08 08:21:12;;;;;;;5.03;4.57;;;;;;;;;;4996662;28;20440;-73
2023/03/08 08:23:39;;;;;;;5.93;4.80;;;;;;;;;;4997005;28;20869;-73
2023/03/08 08:26:06;;;;;;;7.40;4.63;;;;;;;;;;4997131;28;20432;-72
2023/03/08 08:28:32;;;;;;;4.10;3.90;;;;;;;;;;4997429;28;20425;-72
2023/03/08 08:30:59;;;;;;;3.80;3.70;;;;;;;;;;4997588;28;20523;-73
2023/03/08 08:33:25;;;;;;;4.90;3.53;;;;;;;;;;4997387;28;20495;-73
2023/03/08 08:35:51;;;;;;;3.87;3.60;;;;;;;;;;4997066;28;20456;-72
2023/03/08 08:38:17;;;;;;;3.47;3.20;;;;;;;;;;4996313;28;20425;-72
2023/03/08 08:40:43;;;;;;;3.50;3.20;;;;;;;;;;4995794;28;20790;-72
2023/03/08 08:43:09;;;;;;;4.03;3.73;;;;;;;;;;4995599;28;20475;-72
2023/03/08 08:45:36;;;;;;;3.03;2.93;;;;;;;;;;4995600;28;20436;-73
2023/03/08 08:48:02;;;;;;;4.10;3.77;;;;;;;;;;4997231;28;20429;-73
2023/03/08 08:50:28;;;;;;;3.33;3.03;;;;;;;;;;4997141;28;21064;-72
2023/03/08 08:52:55;;;;;;;4.60;4.40;;;;;;;;;;4997103;28;20413;-73
2023/03/08 08:55:21;;;;;;;2.80;2.60;;;;;;;;;;4996720;28;20495;-73
2023/03/08 08:57:47;;;;;;;2.77;2.63;;;;;;;;;;4996824;28;20917;-73
2023/03/08 09:00:13;;;;;;;3.00;2.90;;;;;;;;;;4995277;28;20945;-73
2023/03/08 09:02:39;;;;;;;3.60;3.30;;;;;;;;;;4997404;28;20491;-73
2023/03/08 09:05:05;;;;;;;2.53;2.43;;;;;;;;;;4996906;28;20848;-73
2023/03/08 09:07:31;;;;;;;2.70;2.60;;;;;;;;;;4996645;28;20467;-73
2023/03/08 09:09:59;;;;;;;2.93;2.63;;;;;;;;;;4996350;28;20456;-73
2023/03/08 09:12:25;;;;;;;2.77;2.60;;;;;;;;;;4996781;28;20425;-74
2023/03/08 09:14:51;;;;;;;2.90;2.70;;;;;;;;;;4996194;28;20413;-74
2023/03/08 09:17:17;;;;;;;3.80;2.87;;;;;;;;;;4996536;28;20969;-74
2023/03/08 09:19:43;;;;;;;5.30;3.40;;;;;;;;;;4996311;28;20418;-74
2023/03/08 09:22:09;;;;;;;3.43;3.13;;;;;;;;;;4996255;28;20471;-74
2023/03/08 09:24:35;;;;;;;3.70;3.40;;;;;;;;;;4996528;28;20424;-74
2023/03/08 09:27:00;;;;;;;5.17;3.87;;;;;;;;;;4996273;28;21040;-74
2023/03/08 09:29:27;;;;;;;4.00;3.70;;;;;;;;;;4996397;28;20812;-74
2023/03/08 09:31:53;;;;;;;3.37;3.07;;;;;;;;;;4996341;28;20429;-74
2023/03/08 09:34:19;;;;;;;2.93;2.83;;;;;;;;;;4996158;28;20405;-74
2023/03/08 09:36:46;;;;;;;3.07;2.97;;;;;;;;;;4995861;28;20468;-74
2023/03/08 09:39:12;;;;;;;3.80;3.60;;;;;;;;;;4995121;28;20417;-73
2023/03/08 09:41:45;;;;;;;3.60;2.97;;;;;;;;;;4996234;28;21026;-73
2023/03/08 09:44:29;;;;;;;3.20;3.10;;;;;;;;;;4995533;28;20519;-74
2023/03/08 09:46:59;;;;;;;3.60;2.83;;;;;;;;;;4996251;28;20448;-73
2023/03/08 09:49:29;;;;;;;3.20;3.10;;;;;;;;;;4995657;28;20852;-73
2023/03/08 09:52:15;;;;;;;3.57;3.27;;;;;;;;;;4995961;28;20413;-73
2023/03/08 09:54:42;;;;;;;2.60;2.50;;;;;;;;;;4995772;28;20504;-73
2023/03/08 09:57:14;;;;;;;7.00;3.00;;;;;;;;;;4996084;28;20436;-73
2023/03/08 09:59:43;;;;;;;2.33;2.23;;;;;;;;;;4995930;28;20417;-73
2023/03/08 10:02:15;;;;;;;2.40;2.10;;;;;;;;;;4995911;28;20545;-73
2023/03/08 10:04:53;;;;;;;3.20;3.00;;;;;;;;;;4995736;28;20429;-73
2023/03/08 10:07:38;;;;;;;2.03;1.87;;;;;;;;;;4995575;28;20779;-73
2023/03/08 10:10:04;;;;;;;2.30;2.30;;;;;;;;;;4995553;28;21015;-73
2023/03/08 10:12:30;;;;;;;2.03;1.87;;;;;;;;;;4995675;28;20409;-74
2023/03/08 10:14:57;;;;;;;4.30;2.10;;;;;;;;;;4994140;28;20425;-74
2023/03/08 10:17:27;;;;;;;1.97;1.97;;;;;;;;;;4995909;28;20417;-73
2023/03/08 10:20:13;;;;;;;2.80;2.30;;;;;;;;;;4995386;28;20491;-74
2023/03/08 10:22:41;;;;;;;1.90;1.90;;;;;;;;;;4995509;28;20956;-74
2023/03/08 10:25:22;;;;;;;1.27;1.27;;;;;;;;;;4994971;28;20790;-74
2023/03/08 10:27:50;;;;;;;4.00;2.50;;;;;;;;;;4994795;28;20425;-73
2023/03/08 10:30:19;;;;;;;4.30;2.53;;;;;;;;;;4993691;28;20555;-74
2023/03/08 10:32:46;;;;;;;2.20;2.10;;;;;;;;;;4996105;28;20425;-74
2023/03/08 10:35:13;;;;;;;13.10;2.20;;;;;;;;;;4995157;28;20467;-73
2023/03/08 10:37:38;;;;;;;2.20;2.10;;;;;;;;;;4994993;28;20464;-73
2023/03/08 10:40:12;;;;;;;2.27;2.13;;;;;;;;;;4994806;28;20457;-74
2023/03/08 10:42:42;;;;;;;2.03;2.03;;;;;;;;;;4993413;28;20933;-74
2023/03/08 10:45:21;;;;;;;1.73;1.73;;;;;;;;;;4995373;28;20505;-73
2023/03/08 10:48:13;;;;;;;4.00;1.77;;;;;;;;;;4993582;28;20429;-74
2023/03/08 10:50:39;;;;;;;1.53;1.43;;;;;;;;;;4991314;28;20472;-74
2023/03/08 10:53:09;;;;;;;2.83;1.60;;;;;;;;;;4994689;28;20784;-74
2023/03/08 10:55:46;;;;;;;2.80;2.70;;;;;;;;;;4994520;28;20413;-74
2023/03/08 10:58:30;;;;;;;4.00;3.30;;;;;;;;;;4994897;28;20409;-74
2023/03/08 11:00:57;;;;;;;2.73;2.40;;;;;;;;;;4994510;28;20913;-74
2023/03/08 11:03:24;;;;;;;3.80;2.77;;;;;;;;;;4994404;28;20767;-74
2023/03/08 11:05:59;;;;;;;2.93;2.10;;;;;;;;;;4994436;28;20426;-73
2023/03/08 11:08:28;;;;;;;1.30;1.30;;;;;;;;;;4992921;28;20889;-73
2023/03/08 11:11:01;;;;;;;2.13;2.03;;;;;;;;;;4994523;28;20473;-74
2023/03/08 11:13:46;;;;;;;4.50;3.57;;;;;;;;;;4994410;28;20421;-74
2023/03/08 11:16:18;;;;;;;8.83;7.03;;;;;;;;;;4994653;28;20393;-74
2023/03/08 11:18:53;;;;;;;12.70;9.00;;;;;;;;;;4994827;28;20417;-73
2023/03/08 11:21:20;;;;;;;5.73;3.27;;;;;;;;;;4994144;28;20909;-73
2023/03/08 11:23:53;;;;;;;2.13;2.03;;;;;;;;;;4994528;28;20416;-74
2023/03/08 11:26:26;;;;;;;10.97;5.03;;;;;;;;;;4994331;28;20401;-74
2023/03/08 11:28:52;;;;;;;1.60;1.60;;;;;;;;;;4994109;28;20405;-73
2023/03/08 11:31:26;;;;;;;2.53;1.63;;;;;;;;;;4992709;28;20488;-73
2023/03/08 11:34:10;;;;;;;1.53;1.43;;;;;;;;;;4994035;28;20464;-74
2023/03/08 11:36:39;;;;;;;2.90;2.70;;;;;;;;;;4993989;28;20424;-74
2023/03/08 11:39:19;;;;;;;2.97;1.90;;;;;;;;;;4993808;28;20445;-74
2023/03/08 11:42:02;;;;;;;1.03;1.03;;;;;;;;;;4993984;28;20405;-74
2023/03/08 11:44:46;;;;;;;4.23;3.93;;;;;;;;;;4993821;28;20523;-74
2023/03/08 11:47:21;;;;;;;1.57;1.47;;;;;;;;;;4993992;28;20425;-73
2023/03/08 11:50:07;;;;;;;1.50;1.50;;;;;;;;;;4994049;28;20421;-74
2023/03/08 11:52:51;;;;;;;3.27;2.80;;;;;;;;;;4973697;28;20952;-74
2023/03/08 11:55:38;;;;;;;4.60;2.47;;;;;;;;;;4993691;28;20486;-74
2023/03/08 11:58:31;;;;;;;5.03;4.20;;;;;;;;;;4993863;28;20410;-74
2023/03/08 12:01:01;;;;;;;2.50;2.03;;;;;;;;;;4991699;28;20425;-74
2023/03/08 12:03:33;;;;;;;7.70;2.63;;;;;;;;;;4993722;28;20417;-74
2023/03/08 12:06:02;;;;;;;1.40;1.40;;;;;;;;;;4993746;28;20460;-74
2023/03/08 12:08:31;;;;;;;3.07;1.43;;;;;;;;;;4993835;28;20504;-73
2023/03/08 12:11:06;;;;;;;5.07;3.57;;;;;;;;;;4993362;28;20555;-73
2023/03/08 12:13:40;;;;;;;1.33;1.33;;;;;;;;;;4993872;28;20464;-74
2023/03/08 12:16:10;;;;;;;4.20;3.90;;;;;;;;;;4993610;28;20406;-73
2023/03/08 12:18:56;;;;;;;3.00;1.17;;;;;;;;;;4993495;28;20421;-73
2023/03/08 12:21:41;;;;;;;2.83;1.50;;;;;;;;;;4993896;28;20409;-73
2023/03/08 12:24:22;;;;;;;0.60;0.60;;;;;;;;;;4993425;28;20408;-74
2023/03/08 12:27:08;;;;;;;0.80;0.70;;;;;;;;;;4993619;28;20417;-73
2023/03/08 12:29:40;;;;;;;0.50;0.50;;;;;;;;;;4972965;28;20801;-73
2023/03/08 12:32:07;;;;;;;0.60;0.60;;;;;;;;;;4993430;28;20440;-73
2023/03/08 12:34:37;;;;;;;0.97;0.87;;;;;;;;;;4993588;28;20425;-74
2023/03/08 12:37:04;;;;;;;4.63;0.50;;;;;;;;;;4993375;28;20799;-74
2023/03/08 12:39:34;;;;;;;0.50;0.50;;;;;;;;;;4991956;28;20835;-73
2023/03/08 12:42:20;;;;;;;0.73;0.73;;;;;;;;;;4993431;28;20432;-74
2023/03/08 12:44:48;;;;;;;0.60;0.60;;;;;;;;;;4986240;28;20445;-74
2023/03/08 12:47:13;;;;;;;2.30;1.13;;;;;;;;;;4993138;28;20936;-73
2023/03/08 12:49:41;;;;;;;7.10;0.40;;;;;;;;;;4992413;28;20425;-73
2023/03/08 12:52:19;;;;;;;0.90;0.63;;;;;;;;;;4997254;28;20915;-74
2023/03/08 12:54:56;;;;;;;7.73;1.13;;;;;;;;;;4996958;28;20483;-74
2023/03/08 12:57:24;;;;;;;0.63;0.63;;;;;;;;;;4997211;28;20417;-74
2023/03/08 12:59:56;;;;;;;0.50;0.50;;;;;;;;;;4995564;28;20979;-74
2023/03/08 13:02:29;;;;;;;6.47;1.00;;;;;;;;;;4996798;28;20412;-73
2023/03/08 13:05:14;;;;;;;0.50;0.50;;;;;;;;;;4996894;28;20528;-74
2023/03/08 13:07:47;;;;;;;0.80;0.40;;;;;;;;;;4996946;28;20424;-74
2023/03/08 13:10:20;;;;;;;0.73;0.60;;;;;;;;;;4996546;28;20845;-74
2023/03/08 13:13:06;;;;;;;0.50;0.50;;;;;;;;;;4996611;28;20424;-74
2023/03/08 13:15:32;;;;;;;1.80;0.63;;;;;;;;;;4976248;28;20440;-74
2023/03/08 13:18:05;;;;;;;2.00;0.40;;;;;;;;;;4996814;28;20424;-74
2023/03/08 13:20:40;;;;;;;1.60;1.50;;;;;;;;;;4995129;28;20429;-74
2023/03/08 13:23:09;;;;;;;0.50;0.50;;;;;;;;;;4996683;28;20419;-74
2023/03/08 13:25:51;;;;;;;0.53;0.50;;;;;;;;;;4996372;28;20794;-74
2023/03/08 13:28:21;;;;;;;0.40;0.40;;;;;;;;;;4996941;28;20416;-74
2023/03/08 13:30:50;;;;;;;2.43;0.80;;;;;;;;;;4996220;28;20504;-73
2023/03/08 13:36:24;;;;;;;0.63;0.53;;;;;;;;;;4996252;28;20763;-74
2023/03/08 13:39:07;;;;;;;0.60;0.50;;;;;;;;;;4996096;28;20452;-73
2023/03/08 13:41:40;;;;;;;0.50;0.50;;;;;;;;;;4996345;28;20968;-74
2023/03/08 13:44:07;;;;;;;2.57;0.77;;;;;;;;;;4995933;28;20473;-73
2023/03/08 13:46:34;;;;;;;11.30;0.40;;;;;;;;;;4994701;28;20788;-73
2023/03/08 13:49:00;;;;;;;6.17;0.50;;;;;;;;;;4995937;28;20465;-74
2023/03/08 13:51:27;;;;;;;0.70;0.53;;;;;;;;;;4995836;28;20988;-74
2023/03/08 13:53:54;;;;;;;3.13;0.47;;;;;;;;;;4996329;28;20841;-73
2023/03/08 13:56:25;;;;;;;0.50;0.50;;;;;;;;;;4995813;28;20520;-74
2023/03/08 13:58:53;;;;;;;1.17;0.47;;;;;;;;;;4995981;28;20421;-73
2023/03/08 14:01:23;;;;;;;1.20;0.30;;;;;;;;;;4994575;28;20441;-73
2023/03/08 14:03:50;;;;;;;0.40;0.40;;;;;;;;;;4995655;28;20386;-73
2023/03/08 14:06:17;;;;;;;1.60;0.30;;;;;;;;;;4995952;28;20463;-73
2023/03/08 14:08:44;;;;;;;0.43;0.43;;;;;;;;;;4994352;28;20451;-73
2023/03/08 14:11:15;;;;;;;1.03;0.63;;;;;;;;;;4995461;28;20487;-74
2023/03/08 14:13:44;;;;;;;3.50;0.53;;;;;;;;;;4995857;28;20792;-73
2023/03/08 14:16:22;;;;;;;1.63;0.70;;;;;;;;;;4995762;28;20520;-73
2023/03/08 14:18:48;;;;;;;0.50;0.50;;;;;;;;;;4995328;28;20485;-73
2023/03/08 14:21:16;;;;;;;4.13;1.03;;;;;;;;;;4995147;28;20460;-73
2023/03/08 14:23:46;;;;;;;3.93;1.10;;;;;;;;;;4995556;28;20417;-77
2023/03/08 14:26:27;;;;;;;2.60;1.20;;;;;;;;;;4995354;28;20413;-70
2023/03/08 14:29:12;;;;;;;2.10;0.67;;;;;;;;;;4995374;28;20421;-70
2023/03/08 14:31:39;;;;;;;0.50;0.50;;;;;;;;;;4995764;28;20481;-70
2023/03/08 14:34:16;;;;;;;4.03;0.87;;;;;;;;;;4993753;28;20845;-70
2023/03/08 14:36:47;;;;;;;2.83;0.47;;;;;;;;;;4995329;28;20401;-70
2023/03/08 14:39:17;;;;;;;0.50;0.50;;;;;;;;;;4995230;28;20402;-70
2023/03/08 14:41:43;;;;;;;2.83;0.63;;;;;;;;;;4994880;28;20460;-70
2023/03/08 14:44:20;;;;;;;0.73;0.73;;;;;;;;;;4994699;28;20488;-70
2023/03/08 14:46:46;;;;;;;0.53;0.53;;;;;;;;;;4994773;28;20424;-70
2023/03/08 14:49:22;;;;;;;0.47;0.47;;;;;;;;;;4994957;28;20824;-70
2023/03/08 14:51:49;;;;;;;0.70;0.70;;;;;;;;;;4994756;28;20504;-70
2023/03/08 14:57:21;;;;;;;1.70;0.53;;;;;;;;;;4994704;28;20392;-70
2023/03/08 14:59:47;;;;;;;1.70;0.60;;;;;;;;;;4995084;28;20417;-70
2023/03/08 15:02:14;;;;;;;0.30;0.30;;;;;;;;;;4994774;28;20488;-70
2023/03/08 15:04:41;;;;;;;0.57;0.57;;;;;;;;;;4994920;28;20905;-70
2023/03/08 15:07:07;;;;;;;1.33;0.43;;;;;;;;;;4994507;28;20413;-70